Time;durP1;ratioP1;P1;durP2;ratioP2;P2;SDS_P1;SDS_P2;PMS_P1;PMS_P2;Temp;Humidity;BMP_temperature;BMP_pressure;BME280_temperature;BME280_humidity;BME280_pressure;Samples;Min_cycle;Max_cycle;Signal;HPM_P1;HPM_P2
2021/03/21 00:01:49;;;;;;;;;;;-1.20;71.80;;;;;;5065727;28;20029;-66
2021/03/21 00:04:15;;;;;;;34.53;14.07;;;-1.20;72.00;;;;;;5064743;28;20011;-67
2021/03/21 00:06:42;;;;;;;29.92;13.65;;;-1.30;72.00;;;;;;5065026;28;20113;-67
2021/03/21 00:09:09;;;;;;;26.25;13.73;;;-1.40;72.00;;;;;;5065086;28;20028;-66
2021/03/21 00:11:35;;;;;;;37.40;17.90;;;-1.40;72.20;;;;;;5065082;28;20025;-67
2021/03/21 00:14:02;;;;;;;43.63;21.55;;;-1.40;72.30;;;;;;5063133;28;20051;-66
2021/03/21 00:16:28;;;;;;;39.97;20.05;;;-1.50;72.50;;;;;;5065151;28;20023;-66
2021/03/21 00:18:53;;;;;;;;;;;-1.50;72.50;;;;;;5065619;28;20467;-67
2021/03/21 00:21:19;;;;;;;33.17;16.17;;;-1.50;73.10;;;;;;5063328;28;19958;-66
2021/03/21 00:23:45;;;;;;;;;;;-1.60;73.20;;;;;;5065388;28;20848;-67
2021/03/21 00:26:11;;;;;;;34.70;16.10;;;-1.60;73.00;;;;;;5064545;28;20258;-67
2021/03/21 00:28:39;;;;;;;36.33;18.63;;;-1.70;73.30;;;;;;5064499;28;20500;-67
2021/03/21 00:31:07;;;;;;;42.67;19.73;;;-1.70;73.60;;;;;;5067802;28;20031;-70
2021/03/21 00:33:37;;;;;;;37.00;17.83;;;-1.70;74.20;;;;;;5068075;28;20479;-66
2021/03/21 00:36:05;;;;;;;41.65;20.13;;;-1.70;74.50;;;;;;5068398;28;20020;-66
2021/03/21 00:38:37;;;;;;;37.17;21.33;;;-1.70;74.80;;;;;;5068417;28;20126;-66
2021/03/21 00:41:04;;;;;;;37.85;19.98;;;-1.70;74.90;;;;;;5067812;28;20057;-66
2021/03/21 00:43:30;;;;;;;50.13;25.33;;;-1.80;75.00;;;;;;5067898;28;20059;-66
2021/03/21 00:45:56;;;;;;;;;;;-1.90;75.10;;;;;;5068684;28;20099;-66
2021/03/21 00:48:26;;;;;;;27.23;13.60;;;-1.80;75.50;;;;;;5068653;28;20388;-66
2021/03/21 00:50:52;;;;;;;27.15;15.80;;;-1.90;75.10;;;;;;5068109;28;20102;-66
2021/03/21 00:53:19;;;;;;;38.00;17.85;;;-1.90;75.20;;;;;;5067588;28;20542;-67
2021/03/21 00:55:45;;;;;;;31.05;15.88;;;-2.00;75.70;;;;;;5068101;28;20043;-66
2021/03/21 00:58:11;;;;;;;;;;;-2.10;76.20;;;;;;5068107;28;20029;-66
2021/03/21 01:00:39;;;;;;;51.47;25.05;;;-2.10;76.50;;;;;;5067835;28;19909;-66
2021/03/21 01:03:05;;;;;;;59.28;30.63;;;-2.10;76.80;;;;;;5067556;28;20552;-66
2021/03/21 01:05:36;;;;;;;;;;;-2.10;77.00;;;;;;5068287;28;20039;-66
2021/03/21 01:08:17;;;;;;;31.70;16.70;;;-2.10;77.00;;;;;;5067383;28;19904;-65
2021/03/21 01:10:43;;;;;;;24.00;12.73;;;-2.10;76.80;;;;;;5065840;28;20027;-66
2021/03/21 01:13:08;;;;;;;;;;;-2.20;76.60;;;;;;5067556;28;20028;-66
2021/03/21 01:15:34;;;;;;;26.10;13.30;;;-2.20;76.60;;;;;;5067594;28;19934;-65
2021/03/21 01:17:59;;;;;;;;;;;-2.20;76.80;;;;;;5067923;28;20079;-66
2021/03/21 01:20:28;;;;;;;27.08;13.88;;;-2.20;77.20;;;;;;5067246;28;19915;-66
2021/03/21 01:22:54;;;;;;;28.95;14.20;;;-2.20;77.00;;;;;;5067451;28;20031;-65
2021/03/21 01:25:23;;;;;;;;;;;-2.30;76.80;;;;;;5067542;28;20385;-68
2021/03/21 01:27:50;;;;;;;31.92;15.68;;;-2.30;77.00;;;;;;5066906;28;19934;-66
2021/03/21 01:30:17;;;;;;;27.25;14.10;;;-2.40;76.80;;;;;;5067670;28;20095;-66
2021/03/21 01:32:43;;;;;;;31.33;15.63;;;-2.40;76.60;;;;;;5065685;28;20069;-66
2021/03/21 01:35:10;;;;;;;;;;;-2.40;76.80;;;;;;5067533;28;20055;-66
2021/03/21 01:37:35;;;;;;;29.65;14.77;;;-2.30;76.90;;;;;;5067083;28;19912;-66
2021/03/21 01:40:01;;;;;;;;;;;-2.40;76.90;;;;;;5067485;28;20033;-65
2021/03/21 01:42:41;;;;;;;29.83;14.93;;;-2.40;76.80;;;;;;5065713;28;20007;-65
2021/03/21 01:45:26;;;;;;;28.70;15.20;;;-2.40;76.90;;;;;;5066798;28;20085;-66
2021/03/21 01:47:51;;;;;;;28.73;15.60;;;-2.50;77.00;;;;;;5067049;28;20166;-66
2021/03/21 01:50:23;;;;;;;;;;;-2.50;77.10;;;;;;5067500;28;20092;-66
2021/03/21 01:52:49;;;;;;;32.42;15.90;;;-2.60;77.30;;;;;;5065403;28;20210;-66
2021/03/21 01:55:16;;;;;;;28.23;14.18;;;-2.60;77.30;;;;;;5066649;28;20028;-64
2021/03/21 01:57:43;;;;;;;31.35;15.45;;;-2.70;77.40;;;;;;5065853;28;20029;-65
2021/03/21 02:00:10;;;;;;;33.58;15.55;;;-2.70;77.60;;;;;;5066135;28;20520;-66
2021/03/21 02:02:36;;;;;;;31.45;15.23;;;-2.70;77.90;;;;;;5066788;28;20108;-66
2021/03/21 02:05:02;;;;;;;;;;;-2.60;77.90;;;;;;5066945;28;20131;-66
2021/03/21 02:08:02;;;;;;;28.75;14.60;;;-2.70;77.90;;;;;;5066390;28;20179;-66
2021/03/21 02:10:44;;;;;;;31.90;15.50;;;-2.70;78.00;;;;;;5066682;28;20061;-66
2021/03/21 02:13:20;;;;;;;30.08;15.23;;;-2.80;78.30;;;;;;5064870;28;20036;-66
2021/03/21 02:16:01;;;;;;;34.63;16.85;;;-2.80;78.10;;;;;;5066614;28;20411;-65
2021/03/21 02:18:36;;;;;;;30.50;17.17;;;-2.80;78.00;;;;;;5066457;28;20063;-65
2021/03/21 02:21:29;;;;;;;36.25;16.55;;;-2.90;78.10;;;;;;5066055;28;20062;-65
2021/03/21 02:24:38;;;;;;;30.48;16.92;;;-2.90;78.30;;;;;;5066427;28;20033;-65
2021/03/21 02:27:40;;;;;;;29.33;15.85;;;-2.80;78.60;;;;;;5036514;28;20044;-66
2021/03/21 02:30:23;;;;;;;28.98;15.32;;;-2.90;78.80;;;;;;5066159;28;20097;-66
2021/03/21 02:33:01;;;;;;;29.10;13.75;;;-2.90;78.90;;;;;;5065792;28;20028;-66
2021/03/21 02:36:03;;;;;;;33.40;15.98;;;-2.90;79.00;;;;;;5066088;28;20029;-66
2021/03/21 02:38:48;;;;;;;33.42;15.95;;;-2.90;79.30;;;;;;5056587;28;20145;-65
2021/03/21 02:41:36;;;;;;;38.00;18.13;;;-2.90;79.60;;;;;;5085405;28;20085;-66
2021/03/21 02:44:08;;;;;;;29.23;15.82;;;-2.90;79.30;;;;;;5085510;28;20056;-66
2021/03/21 02:46:45;;;;;;;32.30;16.20;;;-2.90;80.00;;;;;;5086084;28;20045;-66
2021/03/21 02:49:41;;;;;;;34.05;16.70;;;-2.80;80.00;;;;;;5086109;28;20488;-66
2021/03/21 02:52:17;;;;;;;29.42;14.98;;;-2.80;79.90;;;;;;5084228;28;20032;-66
2021/03/21 02:54:58;;;;;;;30.05;15.05;;;-2.80;79.80;;;;;;5086118;28;20385;-66
2021/03/21 02:57:30;;;;;;;26.50;14.00;;;-2.70;80.00;;;;;;5085406;28;20571;-66
2021/03/21 02:59:58;;;;;;;32.45;16.05;;;-2.70;80.30;;;;;;5085631;28;20218;-66
2021/03/21 03:02:33;;;;;;;29.38;14.52;;;-2.60;79.50;;;;;;5086062;28;20511;-66
2021/03/21 03:05:06;;;;;;;27.20;15.27;;;-2.70;79.40;;;;;;5086025;28;20044;-65
2021/03/21 03:07:38;;;;;;;33.05;15.70;;;-2.60;79.40;;;;;;5084453;28;20115;-65
2021/03/21 03:10:14;;;;;;;32.00;15.23;;;-2.60;79.00;;;;;;5085922;28;20122;-66
2021/03/21 03:12:48;;;;;;;32.00;16.58;;;-2.70;79.30;;;;;;5084849;28;20054;-65
2021/03/21 03:15:17;;;;;;;31.50;17.33;;;-2.80;79.70;;;;;;5085727;28;20048;-66
2021/03/21 03:17:50;;;;;;;34.10;17.65;;;-2.80;79.90;;;;;;5084445;28;20061;-66
2021/03/21 03:20:24;;;;;;;35.33;16.73;;;-2.70;79.90;;;;;;5085890;28;20095;-67
2021/03/21 03:22:55;;;;;;;29.63;16.25;;;-2.70;79.70;;;;;;5084007;28;20547;-66
2021/03/21 03:25:42;;;;;;;32.17;16.70;;;-2.60;79.70;;;;;;5085182;28;20075;-66
2021/03/21 03:28:10;;;;;;;26.67;14.52;;;-2.70;79.50;;;;;;5085659;28;20020;-65
2021/03/21 03:30:50;;;;;;;31.05;15.70;;;-2.70;79.70;;;;;;5085246;28;20032;-66
2021/03/21 03:33:16;;;;;;;28.13;14.05;;;-2.80;79.70;;;;;;5085312;28;20036;-67
2021/03/21 03:35:41;;;;;;;29.52;16.25;;;-2.80;79.80;;;;;;5085639;28;20039;-67
2021/03/21 03:38:08;;;;;;;;;;;-2.80;79.60;;;;;;5085908;28;20028;-66
2021/03/21 03:40:39;;;;;;;31.15;15.27;;;-2.80;79.80;;;;;;5085042;28;19928;-66
2021/03/21 03:43:11;;;;;;;34.00;17.52;;;-2.90;79.70;;;;;;5085465;28;20509;-67
2021/03/21 03:45:59;;;;;;;33.60;16.88;;;-3.00;79.70;;;;;;5085355;28;20092;-66
2021/03/21 03:48:48;;;;;;;36.50;18.10;;;-3.00;79.80;;;;;;5085290;28;20492;-65
2021/03/21 03:51:31;;;;;;;29.55;16.08;;;-3.10;79.70;;;;;;5084982;28;20097;-67
2021/03/21 03:54:24;;;;;;;29.83;15.10;;;-3.20;80.00;;;;;;5085393;28;20024;-66
2021/03/21 03:57:00;;;;;;;29.70;15.27;;;-3.20;80.60;;;;;;5084907;28;20163;-65
2021/03/21 03:59:28;;;;;;;26.10;15.00;;;-3.20;81.40;;;;;;5085064;28;20028;-67
2021/03/21 04:02:17;;;;;;;29.67;15.07;;;-3.30;81.60;;;;;;5085125;28;20024;-65
2021/03/21 04:05:00;;;;;;;29.27;14.98;;;-3.20;81.80;;;;;;5087027;28;20035;-66
2021/03/21 04:07:37;;;;;;;28.75;15.45;;;-3.20;81.80;;;;;;5089183;28;20028;-66
2021/03/21 04:10:12;;;;;;;29.42;14.90;;;-3.20;81.70;;;;;;5088331;28;20024;-67
2021/03/21 04:12:48;;;;;;;33.80;15.50;;;-3.20;81.70;;;;;;5089267;28;20024;-66
2021/03/21 04:15:17;;;;;;;28.40;14.27;;;-3.20;81.50;;;;;;5088835;28;20067;-67
2021/03/21 04:18:12;;;;;;;33.63;15.68;;;-3.30;81.30;;;;;;5088585;28;20074;-67
2021/03/21 04:20:43;;;;;;;29.65;15.88;;;-3.30;81.30;;;;;;5015784;28;20042;-66
2021/03/21 04:23:34;;;;;;;29.38;14.93;;;-3.30;81.50;;;;;;5088511;28;20484;-66
2021/03/21 04:26:08;;;;;;;26.80;14.68;;;-3.30;81.70;;;;;;5088339;28;20113;-67
2021/03/21 04:28:49;;;;;;;31.17;16.15;;;-3.40;81.60;;;;;;5088614;28;20021;-67
2021/03/21 04:31:15;;;;;;;25.00;14.73;;;-3.40;81.90;;;;;;5088612;28;20516;-65
2021/03/21 04:33:51;;;;;;;29.27;15.55;;;-3.40;81.90;;;;;;5069492;28;20096;-67
2021/03/21 04:36:20;;;;;;;46.85;21.98;;;-3.50;82.10;;;;;;5068365;28;20029;-66
2021/03/21 04:38:53;;;;;;;38.72;19.73;;;-3.50;82.10;;;;;;5067984;28;20036;-66
2021/03/21 04:41:32;;;;;;;48.80;22.30;;;-3.50;82.10;;;;;;5067201;28;20048;-66
2021/03/21 04:44:13;;;;;;;49.90;23.65;;;-3.50;82.00;;;;;;5068272;28;20404;-67
2021/03/21 04:46:44;;;;;;;59.47;25.25;;;-3.50;82.10;;;;;;5068479;28;20035;-66
2021/03/21 04:49:10;;;;;;;92.97;35.65;;;-3.50;82.10;;;;;;5068088;28;20111;-67
2021/03/21 04:51:45;;;;;;;86.10;31.67;;;-3.40;82.20;;;;;;5067602;28;20459;-67
2021/03/21 04:54:23;;;;;;;68.65;27.63;;;-3.40;82.50;;;;;;5067464;28;20156;-67
2021/03/21 04:57:07;;;;;;;62.90;24.20;;;-3.40;82.40;;;;;;5067622;28;20021;-67
2021/03/21 04:59:35;;;;;;;60.05;23.48;;;-3.40;83.10;;;;;;5066315;28;20055;-66
2021/03/21 05:02:28;;;;;;;76.85;30.20;;;-3.30;82.40;;;;;;5067880;28;20032;-66
2021/03/21 05:05:01;;;;;;;47.85;21.58;;;-3.30;82.10;;;;;;5063719;28;20205;-66
2021/03/21 05:07:32;;;;;;;40.35;19.35;;;-3.20;81.80;;;;;;5067427;28;20021;-67
2021/03/21 05:10:12;;;;;;;28.92;14.50;;;-3.20;82.10;;;;;;5067507;28;20130;-67
2021/03/21 05:12:42;;;;;;;31.85;15.00;;;-3.20;80.80;;;;;;5067665;28;20058;-66
2021/03/21 05:15:21;;;;;;;27.58;14.13;;;-3.20;80.60;;;;;;5067282;28;20038;-66
2021/03/21 05:17:50;;;;;;;25.55;13.13;;;-3.10;80.40;;;;;;5067036;28;20024;-66
2021/03/21 05:20:34;;;;;;;25.90;12.82;;;-3.10;80.40;;;;;;5067565;28;20032;-66
2021/03/21 05:23:21;;;;;;;27.92;13.18;;;-3.00;80.20;;;;;;5067566;28;20029;-66
2021/03/21 05:25:54;;;;;;;22.60;11.73;;;-3.00;80.20;;;;;;5067106;28;20032;-66
2021/03/21 05:28:57;;;;;;;24.48;13.05;;;-2.90;80.40;;;;;;5067521;28;20122;-66
2021/03/21 05:31:24;;;;;;;24.85;12.23;;;-2.80;80.60;;;;;;5066881;28;20021;-67
2021/03/21 05:33:50;;;;;;;30.45;15.23;;;-2.80;80.30;;;;;;5067381;28;20493;-66
2021/03/21 05:36:28;;;;;;;29.92;15.95;;;-2.70;80.10;;;;;;5066094;28;20028;-66
2021/03/21 05:38:59;;;;;;;42.25;22.05;;;-2.60;79.60;;;;;;5066940;28;20129;-66
2021/03/21 05:42:02;;;;;;;51.58;27.77;;;-2.40;79.50;;;;;;5066287;28;20056;-67
2021/03/21 05:45:05;;;;;;;53.95;28.70;;;-2.30;79.00;;;;;;5066687;28;20044;-66
2021/03/21 05:47:33;;;;;;;59.83;29.98;;;-2.10;78.80;;;;;;5066685;28;20550;-67
2021/03/21 05:50:05;;;;;;;59.88;30.67;;;-1.70;78.20;;;;;;5066889;28;20097;-67
2021/03/21 05:52:36;;;;;;;62.95;31.98;;;-1.20;76.70;;;;;;5066653;28;20035;-66
2021/03/21 05:55:27;;;;;;;59.08;31.42;;;-0.70;74.50;;;;;;5066237;28;20475;-67
2021/03/21 05:58:07;;;;;;;51.22;26.88;;;-0.10;72.20;;;;;;5066923;28;20043;-66
2021/03/21 06:00:39;;;;;;;51.08;28.83;;;0.30;70.50;;;;;;5066767;28;20036;-67
2021/03/21 06:03:11;;;;;;;46.00;23.60;;;0.70;68.30;;;;;;5066207;28;20024;-67
2021/03/21 06:05:53;;;;;;;33.92;19.67;;;1.00;67.50;;;;;;5066677;28;20052;-67
2021/03/21 06:08:30;;;;;;;29.45;16.40;;;1.50;66.10;;;;;;5066462;28;20029;-68
2021/03/21 06:11:26;;;;;;;31.58;17.50;;;1.80;65.00;;;;;;5066560;28;20039;-66
2021/03/21 06:14:12;;;;;;;26.02;14.73;;;2.10;63.20;;;;;;5066449;28;20035;-66
2021/03/21 06:17:15;;;;;;;24.85;14.75;;;2.50;62.30;;;;;;5066682;28;20032;-67
2021/03/21 06:20:00;;;;;;;20.70;10.90;;;3.10;58.60;;;;;;5023792;28;20037;-66
2021/03/21 06:22:50;;;;;;;17.73;9.30;;;3.40;54.80;;;;;;5063715;28;20047;-66
2021/03/21 06:25:34;;;;;;;14.48;8.70;;;3.90;52.20;;;;;;5065746;28;20036;-67
2021/03/21 06:28:16;;;;;;;15.18;8.02;;;4.30;49.60;;;;;;5064238;28;20031;-68
2021/03/21 06:30:45;;;;;;;15.32;8.27;;;4.90;48.70;;;;;;5065920;28;20104;-67
2021/03/21 06:33:42;;;;;;;15.68;8.30;;;5.30;46.40;;;;;;5065886;28;20477;-67
2021/03/21 06:36:32;;;;;;;14.57;7.78;;;5.60;44.60;;;;;;5065626;28;20141;-67
2021/03/21 06:39:11;;;;;;;15.30;8.68;;;6.10;43.70;;;;;;5065271;28;20095;-68
2021/03/21 06:42:07;;;;;;;15.27;8.45;;;6.70;41.60;;;;;;5065679;28;20131;-67
2021/03/21 06:44:59;;;;;;;17.30;10.38;;;7.30;40.40;;;;;;5065739;28;20044;-67
2021/03/21 06:47:28;;;;;;;19.40;8.70;;;7.80;38.90;;;;;;5064061;28;20078;-67
2021/03/21 06:50:21;;;;;;;14.57;8.07;;;8.40;37.70;;;;;;5065881;28;20251;-68
2021/03/21 06:52:58;;;;;;;14.35;7.13;;;9.10;34.70;;;;;;5064869;28;20527;-67
2021/03/21 06:55:54;;;;;;;19.67;8.55;;;9.80;32.80;;;;;;5065034;28;20559;-68
2021/03/21 06:58:35;;;;;;;13.30;7.60;;;10.40;30.90;;;;;;5065531;28;20031;-67
2021/03/21 07:01:38;;;;;;;10.63;6.25;;;10.70;30.40;;;;;;5065134;28;20040;-68
2021/03/21 07:04:28;;;;;;;11.05;7.00;;;11.20;29.10;;;;;;5063985;28;20460;-68
2021/03/21 07:07:21;;;;;;;13.05;6.70;;;11.10;28.60;;;;;;5065710;28;20404;-67
2021/03/21 07:10:28;;;;;;;13.07;5.75;;;11.60;27.40;;;;;;5065161;28;20744;-68
2021/03/21 07:13:31;;;;;;;11.25;6.30;;;12.10;26.40;;;;;;5064038;28;20029;-68
2021/03/21 07:16:00;;;;;;;12.30;6.38;;;12.10;26.50;;;;;;5065238;28;20516;-68
2021/03/21 07:18:31;;;;;;;11.95;5.80;;;12.20;27.00;;;;;;5065427;28;20524;-68
2021/03/21 07:21:15;;;;;;;9.35;5.45;;;11.90;26.10;;;;;;5065307;28;20408;-68
2021/03/21 07:24:10;;;;;;;8.43;5.13;;;12.10;25.70;;;;;;5064651;28;20508;-68
2021/03/21 07:26:54;;;;;;;8.75;5.50;;;12.10;25.30;;;;;;5065340;28;20024;-67
2021/03/21 07:29:45;;;;;;;9.70;5.10;;;12.30;25.00;;;;;;5063500;28;20020;-68
2021/03/21 07:32:38;;;;;;;8.75;4.68;;;13.00;24.50;;;;;;5064931;28;20028;-67
2021/03/21 07:35:38;;;;;;;7.40;4.43;;;13.30;23.30;;;;;;5064960;28;20074;-68
2021/03/21 07:38:18;;;;;;;6.93;4.00;;;13.70;22.80;;;;;;5064858;28;20032;-68
2021/03/21 07:41:01;;;;;;;7.80;4.03;;;13.80;22.00;;;;;;5068372;28;20045;-68
2021/03/21 07:43:26;;;;;;;8.88;4.05;;;13.80;21.90;;;;;;5069317;28;20481;-67
2021/03/21 07:45:52;;;;;;;;;;;14.00;21.90;;;;;;5070125;28;20043;-68
2021/03/21 07:48:54;;;;;;;6.82;3.88;;;14.60;20.00;;;;;;5077897;28;20735;-67
2021/03/21 07:51:20;;;;;;;6.07;3.08;;;14.70;19.80;;;;;;5077805;28;20053;-68
2021/03/21 07:53:57;;;;;;;6.25;2.80;;;14.70;19.60;;;;;;5080365;28;20500;-68
2021/03/21 07:56:35;;;;;;;7.65;3.97;;;14.50;19.10;;;;;;5088993;28;20024;-68
2021/03/21 07:59:11;;;;;;;5.05;2.75;;;14.50;19.40;;;;;;5089304;28;20439;-67
2021/03/21 08:01:37;;;;;;;4.38;2.45;;;14.70;18.20;;;;;;5089109;28;20455;-67
2021/03/21 08:04:28;;;;;;;5.70;3.17;;;15.00;18.00;;;;;;5088964;28;20530;-68
2021/03/21 08:06:57;;;;;;;6.25;3.33;;;15.30;18.10;;;;;;5088619;28;20026;-68
2021/03/21 08:09:33;;;;;;;10.65;4.75;;;15.00;18.50;;;;;;5085616;28;20031;-67
2021/03/21 08:12:17;;;;;;;4.78;2.80;;;15.00;18.70;;;;;;5088540;28;20099;-68
2021/03/21 08:14:47;;;;;;;6.18;3.13;;;15.00;18.30;;;;;;5088830;28;20032;-67
2021/03/21 08:17:28;;;;;;;9.25;3.63;;;14.90;18.20;;;;;;5088877;28;20028;-67
2021/03/21 08:20:00;;;;;;;7.30;3.40;;;14.70;18.30;;;;;;5088511;28;20089;-68
2021/03/21 08:22:29;;;;;;;9.38;3.47;;;14.60;18.70;;;;;;5088174;28;20827;-68
2021/03/21 08:25:02;;;;;;;6.63;3.75;;;14.70;18.90;;;;;;5088165;28;20043;-68
2021/03/21 08:27:32;;;;;;;6.40;3.92;;;14.60;19.00;;;;;;5088928;28;20039;-67
2021/03/21 08:30:08;;;;;;;5.93;3.30;;;14.60;18.90;;;;;;5088822;28;20094;-68
2021/03/21 08:32:48;;;;;;;8.40;4.25;;;15.00;19.00;;;;;;5088248;28;20039;-68
2021/03/21 08:35:18;;;;;;;8.60;4.10;;;14.90;19.00;;;;;;5088679;28;20036;-68
2021/03/21 08:37:47;;;;;;;6.53;3.78;;;14.60;19.70;;;;;;5087725;28;20381;-67
2021/03/21 08:40:34;;;;;;;6.38;4.03;;;14.20;19.80;;;;;;5088346;28;20024;-68
2021/03/21 08:43:09;;;;;;;6.43;3.42;;;14.20;20.10;;;;;;5088853;28;20020;-68
2021/03/21 08:45:43;;;;;;;5.83;3.47;;;14.10;19.80;;;;;;5088671;28;20024;-68
2021/03/21 08:48:13;;;;;;;4.57;2.40;;;14.00;19.60;;;;;;5087988;28;20262;-68
2021/03/21 08:51:04;;;;;;;8.95;2.97;;;13.80;18.70;;;;;;5087787;28;20032;-67
2021/03/21 08:53:58;;;;;;;7.35;3.42;;;13.60;19.30;;;;;;5076617;28;20160;-67
2021/03/21 08:56:31;;;;;;;5.05;2.72;;;13.10;19.40;;;;;;5087881;28;20039;-68
2021/03/21 08:59:06;;;;;;;6.50;3.15;;;13.00;19.50;;;;;;5088242;28;20554;-67
2021/03/21 09:01:33;;;;;;;5.35;2.42;;;13.00;19.20;;;;;;5086662;28;20539;-67
2021/03/21 09:04:18;;;;;;;5.45;2.72;;;13.10;19.20;;;;;;5087756;28;20031;-68
2021/03/21 09:06:47;;;;;;;6.32;3.20;;;13.10;19.10;;;;;;5087522;28;20028;-67
2021/03/21 09:09:21;;;;;;;5.25;2.67;;;12.70;19.60;;;;;;5087619;28;20103;-68
2021/03/21 09:11:59;;;;;;;5.13;2.40;;;13.00;19.00;;;;;;5088003;28;20043;-66
2021/03/21 09:14:33;;;;;;;4.88;2.55;;;13.20;19.40;;;;;;5088067;28;20091;-67
2021/03/21 09:17:05;;;;;;;5.22;3.15;;;13.40;19.40;;;;;;5087554;28;20039;-66
2021/03/21 09:19:36;;;;;;;3.88;2.45;;;13.20;19.60;;;;;;5087645;28;20493;-68
2021/03/21 09:22:30;;;;;;;5.10;2.38;;;12.90;19.70;;;;;;5087160;28;20055;-67
2021/03/21 09:25:34;;;;;;;4.35;2.67;;;13.00;19.80;;;;;;5085001;28;20455;-67
2021/03/21 09:28:00;;;;;;;5.82;2.38;;;12.90;19.60;;;;;;5085979;28;20043;-66
2021/03/21 09:30:41;;;;;;;;;;;12.90;20.00;;;;;;5087029;28;20231;-67
2021/03/21 09:33:40;;;;;;;4.80;2.33;;;13.00;20.20;;;;;;5086678;28;19934;-67
2021/03/21 09:36:23;;;;;;;4.43;2.60;;;13.10;20.00;;;;;;5071575;28;20500;-67
2021/03/21 09:38:59;;;;;;;5.57;3.03;;;13.20;20.00;;;;;;5086478;28;20036;-67
2021/03/21 09:41:25;;;;;;;5.00;2.03;;;13.40;20.20;;;;;;5086130;28;20048;-67
2021/03/21 09:43:55;;;;;;;4.28;1.90;;;13.80;18.90;;;;;;5086337;28;20044;-68
2021/03/21 09:46:36;;;;;;;5.18;2.75;;;13.70;19.00;;;;;;5087317;28;20036;-67
2021/03/21 09:49:20;;;;;;;3.92;2.00;;;13.90;19.20;;;;;;5087049;28;20183;-67
2021/03/21 09:51:51;;;;;;;5.25;1.95;;;13.80;18.90;;;;;;5086180;28;20103;-66
2021/03/21 09:54:23;;;;;;;4.45;2.03;;;13.70;18.70;;;;;;5086972;28;20024;-66
2021/03/21 09:57:07;;;;;;;4.95;2.28;;;13.50;18.90;;;;;;5087094;28;20042;-66
2021/03/21 09:59:45;;;;;;;3.50;1.70;;;13.80;18.20;;;;;;5087063;28;20062;-67
2021/03/21 10:02:43;;;;;;;4.32;1.67;;;13.70;18.70;;;;;;5086527;28;20115;-68
2021/03/21 10:05:36;;;;;;;7.43;1.98;;;13.80;18.40;;;;;;5086989;28;20094;-67
2021/03/21 10:08:39;;;;;;;5.15;2.15;;;13.50;18.70;;;;;;5086512;28;20036;-67
2021/03/21 10:11:12;;;;;;;2.80;1.40;;;13.80;18.70;;;;;;5086343;28;20054;-66
2021/03/21 10:13:44;;;;;;;4.60;1.90;;;13.80;18.70;;;;;;5086955;28;20027;-67
2021/03/21 10:16:16;;;;;;;4.15;2.15;;;13.50;19.20;;;;;;5086501;28;20036;-68
2021/03/21 10:18:47;;;;;;;3.40;2.05;;;13.70;19.10;;;;;;5086790;28;20138;-67
2021/03/21 10:21:34;;;;;;;5.15;1.98;;;14.00;18.70;;;;;;5085928;28;20059;-68
2021/03/21 10:24:21;;;;;;;4.85;2.08;;;14.10;19.00;;;;;;5086896;28;20062;-67
2021/03/21 10:27:18;;;;;;;2.88;1.73;;;14.40;18.80;;;;;;5085741;28;20031;-67
2021/03/21 10:30:14;;;;;;;5.15;2.40;;;14.30;18.30;;;;;;5084335;28;20671;-67
2021/03/21 10:33:00;;;;;;;4.77;2.50;;;14.20;18.60;;;;;;5074269;28;20510;-66
2021/03/21 10:35:29;;;;;;;5.43;1.88;;;13.90;18.60;;;;;;5043961;28;20119;-67
2021/03/21 10:38:36;;;;;;;5.53;3.05;;;13.10;19.50;;;;;;5083240;28;20024;-66
2021/03/21 10:41:02;;;;;;;7.30;3.42;;;12.00;20.90;;;;;;5084338;28;20052;-67
2021/03/21 10:43:27;;;;;;;;;;;11.10;21.90;;;;;;5086251;28;20092;-68
2021/03/21 10:45:55;;;;;;;7.70;2.90;;;10.60;22.70;;;;;;5085702;28;19912;-67
2021/03/21 10:48:27;;;;;;;7.82;2.97;;;10.20;22.80;;;;;;5086361;28;20028;-67
2021/03/21 10:51:00;;;;;;;9.93;3.42;;;9.70;23.30;;;;;;5085667;28;20077;-67
2021/03/21 10:53:35;;;;;;;6.47;2.92;;;9.20;23.90;;;;;;5084204;28;20373;-67
2021/03/21 10:56:17;;;;;;;8.48;3.92;;;8.80;24.10;;;;;;5085739;28;20043;-67
2021/03/21 10:58:46;;;;;;;5.82;3.78;;;8.40;24.90;;;;;;5084561;28;20115;-67
2021/03/21 11:01:22;;;;;;;7.32;3.60;;;8.10;25.10;;;;;;5085237;28;20091;-66
2021/03/21 11:04:02;;;;;;;5.10;2.90;;;7.90;26.00;;;;;;5085549;28;20055;-67
2021/03/21 11:06:50;;;;;;;9.00;3.72;;;7.70;25.90;;;;;;5084591;28;20032;-67
2021/03/21 11:09:17;;;;;;;6.97;3.58;;;7.60;26.20;;;;;;5070285;28;20065;-66
2021/03/21 11:11:46;;;;;;;4.97;3.03;;;7.50;26.40;;;;;;5084715;28;20063;-66
2021/03/21 11:14:13;;;;;;;6.85;2.83;;;7.50;26.40;;;;;;5084187;28;20031;-66
2021/03/21 11:16:39;;;;;;;8.93;3.40;;;7.60;26.00;;;;;;5083428;28;20035;-67
2021/03/21 11:19:08;;;;;;;;;;;7.50;26.20;;;;;;5085163;28;20562;-66
2021/03/21 11:21:36;;;;;;;6.72;3.55;;;7.50;26.30;;;;;;5084473;28;19908;-66
2021/03/21 11:24:04;;;;;;;5.82;2.92;;;7.40;25.90;;;;;;5085731;28;20717;-66
2021/03/21 11:26:35;;;;;;;7.85;3.58;;;7.30;26.10;;;;;;5085698;28;20032;-65
2021/03/21 11:29:09;;;;;;;5.90;2.95;;;7.30;25.60;;;;;;5085485;28;20399;-67
2021/03/21 11:31:50;;;;;;;6.53;3.05;;;7.20;26.00;;;;;;5084203;28;20028;-66
2021/03/21 11:34:20;;;;;;;6.00;2.88;;;7.20;26.00;;;;;;5084713;28;20138;-67
2021/03/21 11:37:05;;;;;;;4.28;2.13;;;7.20;26.40;;;;;;5084532;28;20031;-66
2021/03/21 11:39:47;;;;;;;6.20;2.38;;;7.20;25.40;;;;;;5083123;28;20028;-66
2021/03/21 11:42:27;;;;;;;4.80;2.30;;;7.20;24.80;;;;;;5085252;28;20048;-67
2021/03/21 11:45:12;;;;;;;9.00;2.28;;;7.30;25.20;;;;;;5085356;28;20040;-67
2021/03/21 11:47:41;;;;;;;6.18;2.92;;;7.30;24.70;;;;;;5085556;28;20078;-66
2021/03/21 11:50:10;;;;;;;4.72;2.03;;;7.40;24.70;;;;;;5083442;28;20032;-67
2021/03/21 11:52:40;;;;;;;7.00;2.40;;;7.40;25.20;;;;;;5085520;28;20552;-66
2021/03/21 11:55:06;;;;;;;6.80;3.05;;;7.40;24.80;;;;;;5084948;28;20638;-66
2021/03/21 11:57:42;;;;;;;7.40;3.17;;;7.50;24.60;;;;;;5085315;28;20029;-67
2021/03/21 12:00:28;;;;;;;6.15;2.38;;;7.50;24.70;;;;;;5084007;28;20111;-67
2021/03/21 12:03:02;;;;;;;6.55;2.33;;;7.50;24.50;;;;;;5085266;28;20028;-66
2021/03/21 12:05:32;;;;;;;4.10;2.25;;;7.40;24.50;;;;;;5084470;28;20036;-67
2021/03/21 12:08:14;;;;;;;7.93;2.70;;;7.40;24.00;;;;;;5083816;28;20028;-65
2021/03/21 12:10:42;;;;;;;5.45;2.80;;;7.30;24.50;;;;;;5085201;28;20055;-66
2021/03/21 12:13:36;;;;;;;6.68;3.13;;;7.30;24.40;;;;;;5084693;28;20027;-66
2021/03/21 12:16:05;;;;;;;4.38;2.40;;;7.30;24.60;;;;;;5085239;28;20056;-67
2021/03/21 12:18:35;;;;;;;5.40;2.88;;;7.30;24.60;;;;;;5085060;28;20509;-67
2021/03/21 12:21:14;;;;;;;5.93;3.22;;;7.20;24.50;;;;;;5084501;28;20111;-67
2021/03/21 12:24:04;;;;;;;4.10;2.45;;;7.10;24.80;;;;;;5084095;28;20051;-67
2021/03/21 12:26:37;;;;;;;7.35;3.38;;;7.10;25.50;;;;;;5087981;28;20046;-67
2021/03/21 12:29:43;;;;;;;6.90;2.80;;;7.20;24.90;;;;;;5088281;28;20565;-67
2021/03/21 12:32:29;;;;;;;7.72;2.97;;;7.20;25.30;;;;;;5088738;28;20412;-67
2021/03/21 12:34:56;;;;;;;6.22;3.40;;;7.20;25.30;;;;;;5088239;28;20069;-67
2021/03/21 12:37:44;;;;;;;5.95;2.78;;;7.20;25.20;;;;;;5088399;28;20439;-67
2021/03/21 12:40:18;;;;;;;8.32;3.58;;;7.20;25.70;;;;;;5088392;28;20058;-67
2021/03/21 12:42:47;;;;;;;6.72;2.80;;;7.20;26.30;;;;;;5088314;28;20349;-67
2021/03/21 12:45:29;;;;;;;5.35;3.05;;;7.30;25.80;;;;;;5088395;28;20069;-67
2021/03/21 12:47:55;;;;;;;6.70;3.20;;;7.40;24.70;;;;;;5088103;28;20024;-67
2021/03/21 12:50:36;;;;;;;6.60;2.88;;;7.30;25.80;;;;;;5087925;28;20460;-68
2021/03/21 12:53:09;;;;;;;10.02;5.88;;;7.30;26.10;;;;;;5088226;28;20488;-66
2021/03/21 12:55:36;;;;;;;8.18;3.03;;;7.30;25.80;;;;;;5087967;28;20114;-67
2021/03/21 12:58:02;;;;;;;7.35;3.28;;;7.30;25.90;;;;;;5088285;28;20028;-67
2021/03/21 13:00:34;;;;;;;6.68;2.60;;;7.30;25.90;;;;;;5087811;28;20404;-67
2021/03/21 13:03:03;;;;;;;4.78;2.38;;;7.40;25.00;;;;;;5088481;28;20101;-66
2021/03/21 13:05:34;;;;;;;4.53;2.45;;;7.40;24.60;;;;;;5087359;28;20050;-67
2021/03/21 13:08:01;;;;;;;4.82;2.33;;;7.30;24.60;;;;;;5087926;28;20028;-67
2021/03/21 13:10:32;;;;;;;7.82;2.72;;;7.20;25.30;;;;;;5087559;28;20024;-67
2021/03/21 13:12:57;;;;;;;4.28;2.20;;;7.20;24.90;;;;;;5087639;28;20025;-67
2021/03/21 13:15:23;;;;;;;8.55;2.63;;;7.20;24.90;;;;;;5087798;28;20130;-67
2021/03/21 13:17:49;;;;;;;;;;;7.10;25.00;;;;;;5088187;28;20036;-67
2021/03/21 13:20:18;;;;;;;5.30;2.55;;;7.10;25.00;;;;;;5087332;28;20213;-66
2021/03/21 13:22:43;;;;;;;5.40;1.92;;;7.00;24.90;;;;;;5087335;28;20798;-66
2021/03/21 13:25:12;;;;;;;4.53;2.20;;;7.10;25.30;;;;;;5069561;28;20036;-67
2021/03/21 13:27:38;;;;;;;5.07;2.13;;;7.10;24.70;;;;;;5087592;28;20024;-67
2021/03/21 13:30:05;;;;;;;4.90;2.17;;;7.00;24.40;;;;;;5087773;28;20460;-66
2021/03/21 13:32:31;;;;;;;7.45;1.77;;;7.00;24.00;;;;;;5087222;28;20024;-67
2021/03/21 13:34:56;;;;;;;4.25;1.88;;;7.00;23.80;;;;;;5087124;28;20031;-67